Dati Storici

Data ora Umidita' aria (%) Temperatura aria (°C) Rad globale (W/m²) Gonioanemometro (°) Tacoanemometro (m/s) Pioggia (mm)
23-06-2020 22:50 60.7 % 25.499 92.677 0.813 0 0
23-06-2020 22:40 60.3 % 25.625 103.06 1.477 0 0
23-06-2020 22:30 62.4 % 25.479 196.325 -0.016 0 0
23-06-2020 22:20 59.9 % 25.932 136.796 -0.017 0 0
23-06-2020 22:10 59.5 % 26.076 4.844 -0.02 0 0
23-06-2020 22:00 60.2 % 26.361 131.795 -0.019 0 0
23-06-2020 21:50 60.4 % 26.228 121.502 -0.02 0 0
23-06-2020 21:40 62.5 % 26.294 121.13 -0.017 0 0
23-06-2020 21:30 66.6 % 26.163 145.934 -0.019 0 0
23-06-2020 21:20 71 % 25.773 101.283 -0.016 0 0
23-06-2020 21:10 70.7 % 25.75 70.249 -0.017 0 0
23-06-2020 21:00 69.4 % 25.837 101.571 0.345 0 0
23-06-2020 20:50 68.9 % 25.939 87.176 -0.016 0 0
23-06-2020 20:40 67 % 25.973 131.702 0.142 0 0
23-06-2020 20:30 65.2 % 26.147 72.912 0.45 0 0
23-06-2020 20:20 63.6 % 26.249 79.534 -0.018 0 0
23-06-2020 20:10 62.2 % 26.251 81.876 0.698 0 0
23-06-2020 20:00 60.2 % 26.514 123.996 0.391 0 0
23-06-2020 19:50 59.2 % 26.765 136.054 1.326 0 0
23-06-2020 19:40 58.2 % 26.953 73.773 1.097 0 0

I dati sono presentati in modo automatico a scopo informativo. In seguito a verifica i dati possono subire modifiche o essere invalidati e non riportati negli archivi definitivi.